sensor_id;sensor_type;location;lat;lon;timestamp;P1;durP1;ratioP1;P2;durP2;ratioP2
39294;SDS011;52361;52.100;5.248;2023-02-28T00:01:10;4.7;;;2.7;;
39294;SDS011;52361;52.100;5.248;2023-02-28T00:02:47;4.41;;;2.7;;
39294;SDS011;52361;52.100;5.248;2023-02-28T00:04:24;5.11;;;2.9;;
39294;SDS011;52361;52.100;5.248;2023-02-28T00:06:00;4.1;;;2.7;;
39294;SDS011;52361;52.100;5.248;2023-02-28T00:09:14;7.7;;;2.9;;
39294;SDS011;52361;52.100;5.248;2023-02-28T00:10:50;6.4;;;4.2;;
39294;SDS011;52361;52.100;5.248;2023-02-28T00:12:26;5.0;;;3.0;;
39294;SDS011;52361;52.100;5.248;2023-02-28T00:15:38;6.1;;;3.0;;
39294;SDS011;52361;52.100;5.248;2023-02-28T00:17:15;4.2;;;2.4;;
39294;SDS011;52361;52.100;5.248;2023-02-28T00:18:51;4.8;;;2.9;;
39294;SDS011;52361;52.100;5.248;2023-02-28T00:23:39;4.7;;;2.8;;
39294;SDS011;52361;52.100;5.248;2023-02-28T00:25:16;3.9;;;3.0;;
39294;SDS011;52361;52.100;5.248;2023-02-28T00:26:55;6.9;;;2.9;;
39294;SDS011;52361;52.100;5.248;2023-02-28T00:30:09;4.3;;;2.6;;
39294;SDS011;52361;52.100;5.248;2023-02-28T00:31:51;6.4;;;2.8;;
39294;SDS011;52361;52.100;5.248;2023-02-28T00:33:27;3.1;;;2.4;;
39294;SDS011;52361;52.100;5.248;2023-02-28T00:36:42;4.0;;;2.31;;
39294;SDS011;52361;52.100;5.248;2023-02-28T00:38:19;4.2;;;2.31;;
39294;SDS011;52361;52.100;5.248;2023-02-28T00:39:56;3.3;;;2.31;;
39294;SDS011;52361;52.100;5.248;2023-02-28T00:41:32;4.91;;;3.0;;
39294;SDS011;52361;52.100;5.248;2023-02-28T00:44:44;4.5;;;2.1;;
39294;SDS011;52361;52.100;5.248;2023-02-28T00:46:20;4.8;;;2.9;;
39294;SDS011;52361;52.100;5.248;2023-02-28T00:47:56;5.0;;;2.6;;
39294;SDS011;52361;52.100;5.248;2023-02-28T00:51:09;3.2;;;2.4;;
39294;SDS011;52361;52.100;5.248;2023-02-28T00:52:45;6.6;;;3.1;;
39294;SDS011;52361;52.100;5.248;2023-02-28T00:54:22;4.41;;;2.7;;
39294;SDS011;52361;52.100;5.248;2023-02-28T00:57:35;11.6;;;3.5;;
39294;SDS011;52361;52.100;5.248;2023-02-28T00:59:11;3.1;;;2.8;;
39294;SDS011;52361;52.100;5.248;2023-02-28T01:00:49;4.3;;;2.6;;
39294;SDS011;52361;52.100;5.248;2023-02-28T01:04:02;6.3;;;2.7;;
39294;SDS011;52361;52.100;5.248;2023-02-28T01:05:38;4.41;;;2.7;;
39294;SDS011;52361;52.100;5.248;2023-02-28T01:07:14;3.7;;;2.7;;
39294;SDS011;52361;52.100;5.248;2023-02-28T01:08:50;5.2;;;3.0;;
39294;SDS011;52361;52.100;5.248;2023-02-28T01:12:04;4.8;;;2.7;;
39294;SDS011;52361;52.100;5.248;2023-02-28T01:13:40;3.4;;;2.31;;
39294;SDS011;52361;52.100;5.248;2023-02-28T01:15:17;4.91;;;2.6;;
39294;SDS011;52361;52.100;5.248;2023-02-28T01:18:29;5.9;;;2.5;;
39294;SDS011;52361;52.100;5.248;2023-02-28T01:20:06;4.7;;;2.5;;
39294;SDS011;52361;52.100;5.248;2023-02-28T01:21:42;4.8;;;2.7;;
39294;SDS011;52361;52.100;5.248;2023-02-28T01:24:55;3.7;;;2.31;;
39294;SDS011;52361;52.100;5.248;2023-02-28T01:26:32;2.7;;;2.31;;
39294;SDS011;52361;52.100;5.248;2023-02-28T01:29:44;3.7;;;2.31;;
39294;SDS011;52361;52.100;5.248;2023-02-28T01:32:58;5.4;;;2.31;;
39294;SDS011;52361;52.100;5.248;2023-02-28T01:34:35;2.21;;;2.0;;
39294;SDS011;52361;52.100;5.248;2023-02-28T01:36:12;5.7;;;2.6;;
39294;SDS011;52361;52.100;5.248;2023-02-28T01:39:27;3.7;;;2.7;;
39294;SDS011;52361;52.100;5.248;2023-02-28T01:41:03;3.8;;;2.4;;
39294;SDS011;52361;52.100;5.248;2023-02-28T01:42:40;8.2;;;2.8;;
39294;SDS011;52361;52.100;5.248;2023-02-28T01:47:01;4.41;;;2.21;;
39294;SDS011;52361;52.100;5.248;2023-02-28T01:48:38;9.71;;;2.6;;
39294;SDS011;52361;52.100;5.248;2023-02-28T01:51:58;3.4;;;2.5;;
39294;SDS011;52361;52.100;5.248;2023-02-28T01:53:35;4.1;;;2.7;;
39294;SDS011;52361;52.100;5.248;2023-02-28T01:55:17;2.8;;;2.1;;
39294;SDS011;52361;52.100;5.248;2023-02-28T01:56:58;7.0;;;2.21;;
39294;SDS011;52361;52.100;5.248;2023-02-28T02:00:17;4.7;;;2.7;;
39294;SDS011;52361;52.100;5.248;2023-02-28T02:01:59;7.4;;;2.7;;
39294;SDS011;52361;52.100;5.248;2023-02-28T02:03:36;6.2;;;2.6;;
39294;SDS011;52361;52.100;5.248;2023-02-28T02:05:14;4.0;;;2.4;;
39294;SDS011;52361;52.100;5.248;2023-02-28T02:08:30;4.2;;;2.31;;
39294;SDS011;52361;52.100;5.248;2023-02-28T02:10:11;2.8;;;2.5;;
39294;SDS011;52361;52.100;5.248;2023-02-28T02:11:50;3.9;;;2.4;;
39294;SDS011;52361;52.100;5.248;2023-02-28T02:15:29;4.0;;;2.5;;
39294;SDS011;52361;52.100;5.248;2023-02-28T02:17:14;3.1;;;2.1;;
39294;SDS011;52361;52.100;5.248;2023-02-28T02:19:02;5.4;;;2.1;;
39294;SDS011;52361;52.100;5.248;2023-02-28T02:21:20;3.8;;;1.8;;
39294;SDS011;52361;52.100;5.248;2023-02-28T02:24:47;3.4;;;2.0;;
39294;SDS011;52361;52.100;5.248;2023-02-28T02:27:14;2.8;;;2.21;;
39294;SDS011;52361;52.100;5.248;2023-02-28T02:29:48;4.3;;;2.1;;
39294;SDS011;52361;52.100;5.248;2023-02-28T02:32:10;5.0;;;3.1;;
39294;SDS011;52361;52.100;5.248;2023-02-28T02:35:27;2.7;;;2.4;;
39294;SDS011;52361;52.100;5.248;2023-02-28T02:37:10;4.2;;;2.31;;
39294;SDS011;52361;52.100;5.248;2023-02-28T02:38:56;3.2;;;1.9;;
39294;SDS011;52361;52.100;5.248;2023-02-28T02:42:31;4.91;;;2.1;;
39294;SDS011;52361;52.100;5.248;2023-02-28T02:44:17;5.4;;;2.8;;
39294;SDS011;52361;52.100;5.248;2023-02-28T02:45:58;4.5;;;2.5;;
39294;SDS011;52361;52.100;5.248;2023-02-28T02:47:40;2.9;;;2.1;;
39294;SDS011;52361;52.100;5.248;2023-02-28T02:49:19;4.7;;;2.4;;
39294;SDS011;52361;52.100;5.248;2023-02-28T02:52:42;2.7;;;2.31;;
39294;SDS011;52361;52.100;5.248;2023-02-28T02:54:33;6.6;;;2.5;;
39294;SDS011;52361;52.100;5.248;2023-02-28T02:56:12;3.5;;;2.1;;
39294;SDS011;52361;52.100;5.248;2023-02-28T02:57:51;5.0;;;2.1;;
39294;SDS011;52361;52.100;5.248;2023-02-28T03:01:15;3.8;;;2.31;;
39294;SDS011;52361;52.100;5.248;2023-02-28T03:02:54;6.3;;;2.5;;
39294;SDS011;52361;52.100;5.248;2023-02-28T03:04:33;3.3;;;2.4;;
39294;SDS011;52361;52.100;5.248;2023-02-28T03:09:32;7.6;;;2.5;;
39294;SDS011;52361;52.100;5.248;2023-02-28T03:11:11;4.91;;;2.5;;
39294;SDS011;52361;52.100;5.248;2023-02-28T03:12:51;3.7;;;2.4;;
39294;SDS011;52361;52.100;5.248;2023-02-28T03:14:43;3.8;;;2.0;;
39294;SDS011;52361;52.100;5.248;2023-02-28T03:16:33;4.2;;;2.21;;
39294;SDS011;52361;52.100;5.248;2023-02-28T03:20:04;5.9;;;2.4;;
39294;SDS011;52361;52.100;5.248;2023-02-28T03:21:54;3.5;;;2.21;;
39294;SDS011;52361;52.100;5.248;2023-02-28T03:23:42;3.9;;;2.5;;
39294;SDS011;52361;52.100;5.248;2023-02-28T03:25:28;5.4;;;2.21;;
39294;SDS011;52361;52.100;5.248;2023-02-28T03:27:12;4.2;;;2.0;;
39294;SDS011;52361;52.100;5.248;2023-02-28T03:28:59;3.1;;;2.4;;
39294;SDS011;52361;52.100;5.248;2023-02-28T03:32:25;3.7;;;2.31;;
39294;SDS011;52361;52.100;5.248;2023-02-28T03:34:10;4.1;;;2.31;;
39294;SDS011;52361;52.100;5.248;2023-02-28T03:35:54;3.0;;;1.7;;
39294;SDS011;52361;52.100;5.248;2023-02-28T03:37:35;2.5;;;2.31;;
39294;SDS011;52361;52.100;5.248;2023-02-28T03:40:58;2.8;;;2.21;;
39294;SDS011;52361;52.100;5.248;2023-02-28T03:42:41;2.4;;;2.0;;
39294;SDS011;52361;52.100;5.248;2023-02-28T03:44:22;3.0;;;2.1;;
39294;SDS011;52361;52.100;5.248;2023-02-28T03:46:06;4.3;;;2.21;;
39294;SDS011;52361;52.100;5.248;2023-02-28T03:47:47;4.5;;;2.5;;
39294;SDS011;52361;52.100;5.248;2023-02-28T03:51:10;2.6;;;2.0;;
39294;SDS011;52361;52.100;5.248;2023-02-28T03:52:53;2.8;;;2.1;;
39294;SDS011;52361;52.100;5.248;2023-02-28T03:54:38;4.5;;;1.7;;
39294;SDS011;52361;52.100;5.248;2023-02-28T03:56:22;5.7;;;2.1;;
39294;SDS011;52361;52.100;5.248;2023-02-28T03:59:52;3.5;;;2.6;;
39294;SDS011;52361;52.100;5.248;2023-02-28T04:01:35;3.2;;;2.5;;
39294;SDS011;52361;52.100;5.248;2023-02-28T04:03:16;7.1;;;2.21;;
39294;SDS011;52361;52.100;5.248;2023-02-28T04:04:52;4.1;;;2.4;;
39294;SDS011;52361;52.100;5.248;2023-02-28T04:08:07;4.61;;;2.1;;
39294;SDS011;52361;52.100;5.248;2023-02-28T04:09:44;6.1;;;2.8;;
39294;SDS011;52361;52.100;5.248;2023-02-28T04:11:22;3.6;;;2.21;;
39294;SDS011;52361;52.100;5.248;2023-02-28T04:13:02;4.41;;;2.1;;
39294;SDS011;52361;52.100;5.248;2023-02-28T04:16:14;4.41;;;2.8;;
39294;SDS011;52361;52.100;5.248;2023-02-28T04:17:51;4.8;;;2.4;;
39294;SDS011;52361;52.100;5.248;2023-02-28T04:19:28;3.4;;;2.4;;
39294;SDS011;52361;52.100;5.248;2023-02-28T04:22:41;3.6;;;2.7;;
39294;SDS011;52361;52.100;5.248;2023-02-28T04:24:18;3.9;;;3.3;;
39294;SDS011;52361;52.100;5.248;2023-02-28T04:25:56;6.1;;;2.4;;
39294;SDS011;52361;52.100;5.248;2023-02-28T04:27:32;4.1;;;2.8;;
39294;SDS011;52361;52.100;5.248;2023-02-28T04:30:53;4.0;;;2.9;;
39294;SDS011;52361;52.100;5.248;2023-02-28T04:32:31;3.6;;;2.7;;
39294;SDS011;52361;52.100;5.248;2023-02-28T04:34:07;6.7;;;3.0;;
39294;SDS011;52361;52.100;5.248;2023-02-28T04:37:19;2.4;;;2.0;;
39294;SDS011;52361;52.100;5.248;2023-02-28T04:38:55;4.41;;;2.7;;
39294;SDS011;52361;52.100;5.248;2023-02-28T04:40:32;3.1;;;2.4;;
39294;SDS011;52361;52.100;5.248;2023-02-28T04:42:09;3.2;;;2.31;;
39294;SDS011;52361;52.100;5.248;2023-02-28T04:45:22;4.0;;;2.4;;
39294;SDS011;52361;52.100;5.248;2023-02-28T04:46:58;3.6;;;2.6;;
39294;SDS011;52361;52.100;5.248;2023-02-28T04:48:35;2.8;;;2.0;;
39294;SDS011;52361;52.100;5.248;2023-02-28T04:51:49;3.8;;;2.1;;
39294;SDS011;52361;52.100;5.248;2023-02-28T04:53:26;3.8;;;2.5;;
39294;SDS011;52361;52.100;5.248;2023-02-28T04:55:04;6.1;;;2.9;;
39294;SDS011;52361;52.100;5.248;2023-02-28T04:58:18;4.3;;;2.6;;
39294;SDS011;52361;52.100;5.248;2023-02-28T04:59:54;2.8;;;2.21;;
39294;SDS011;52361;52.100;5.248;2023-02-28T05:01:31;4.61;;;2.8;;
39294;SDS011;52361;52.100;5.248;2023-02-28T05:03:08;5.9;;;2.6;;
39294;SDS011;52361;52.100;5.248;2023-02-28T05:06:21;3.9;;;2.1;;
39294;SDS011;52361;52.100;5.248;2023-02-28T05:07:59;2.7;;;1.7;;
39294;SDS011;52361;52.100;5.248;2023-02-28T05:09:35;2.31;;;2.1;;
39294;SDS011;52361;52.100;5.248;2023-02-28T05:12:52;4.0;;;2.0;;
39294;SDS011;52361;52.100;5.248;2023-02-28T05:14:28;4.91;;;2.1;;
39294;SDS011;52361;52.100;5.248;2023-02-28T05:16:05;3.1;;;2.1;;
39294;SDS011;52361;52.100;5.248;2023-02-28T05:17:42;2.1;;;1.9;;
39294;SDS011;52361;52.100;5.248;2023-02-28T05:20:55;2.6;;;2.4;;
39294;SDS011;52361;52.100;5.248;2023-02-28T05:22:31;2.7;;;2.0;;
39294;SDS011;52361;52.100;5.248;2023-02-28T05:24:09;2.6;;;1.7;;
39294;SDS011;52361;52.100;5.248;2023-02-28T05:27:23;3.3;;;2.5;;
39294;SDS011;52361;52.100;5.248;2023-02-28T05:28:59;4.1;;;2.21;;
39294;SDS011;52361;52.100;5.248;2023-02-28T05:30:36;2.8;;;2.0;;
39294;SDS011;52361;52.100;5.248;2023-02-28T05:33:49;3.2;;;2.1;;
39294;SDS011;52361;52.100;5.248;2023-02-28T05:35:26;2.31;;;1.8;;
39294;SDS011;52361;52.100;5.248;2023-02-28T05:37:02;3.1;;;1.9;;
39294;SDS011;52361;52.100;5.248;2023-02-28T05:38:38;3.0;;;2.7;;
39294;SDS011;52361;52.100;5.248;2023-02-28T05:41:52;9.5;;;2.21;;
39294;SDS011;52361;52.100;5.248;2023-02-28T05:43:28;3.9;;;2.6;;
39294;SDS011;52361;52.100;5.248;2023-02-28T05:45:04;4.41;;;2.1;;
39294;SDS011;52361;52.100;5.248;2023-02-28T05:48:17;4.2;;;2.1;;
39294;SDS011;52361;52.100;5.248;2023-02-28T05:49:53;3.2;;;2.4;;
39294;SDS011;52361;52.100;5.248;2023-02-28T05:51:29;4.8;;;2.7;;
39294;SDS011;52361;52.100;5.248;2023-02-28T05:54:42;3.3;;;2.5;;
39294;SDS011;52361;52.100;5.248;2023-02-28T05:56:18;3.6;;;2.31;;
39294;SDS011;52361;52.100;5.248;2023-02-28T05:57:54;2.7;;;2.1;;
39294;SDS011;52361;52.100;5.248;2023-02-28T05:59:30;2.8;;;2.31;;
39294;SDS011;52361;52.100;5.248;2023-02-28T06:03:08;3.1;;;2.4;;
39294;SDS011;52361;52.100;5.248;2023-02-28T06:04:45;4.41;;;2.5;;
39294;SDS011;52361;52.100;5.248;2023-02-28T06:06:22;2.8;;;2.4;;
39294;SDS011;52361;52.100;5.248;2023-02-28T06:07:58;4.91;;;2.5;;
39294;SDS011;52361;52.100;5.248;2023-02-28T06:11:11;4.2;;;2.6;;
39294;SDS011;52361;52.100;5.248;2023-02-28T06:12:48;4.3;;;2.21;;
39294;SDS011;52361;52.100;5.248;2023-02-28T06:14:24;7.4;;;3.3;;
39294;SDS011;52361;52.100;5.248;2023-02-28T06:17:37;7.4;;;3.3;;
39294;SDS011;52361;52.100;5.248;2023-02-28T06:19:13;2.5;;;2.31;;
39294;SDS011;52361;52.100;5.248;2023-02-28T06:20:52;4.2;;;2.4;;
39294;SDS011;52361;52.100;5.248;2023-02-28T06:24:05;2.4;;;2.21;;
39294;SDS011;52361;52.100;5.248;2023-02-28T06:25:44;2.8;;;2.31;;
39294;SDS011;52361;52.100;5.248;2023-02-28T06:27:20;3.3;;;2.8;;
39294;SDS011;52361;52.100;5.248;2023-02-28T06:28:57;4.61;;;2.7;;
39294;SDS011;52361;52.100;5.248;2023-02-28T06:32:09;5.2;;;3.0;;
39294;SDS011;52361;52.100;5.248;2023-02-28T06:33:45;7.2;;;2.5;;
39294;SDS011;52361;52.100;5.248;2023-02-28T06:35:22;3.7;;;2.4;;
39294;SDS011;52361;52.100;5.248;2023-02-28T06:38:36;3.7;;;2.4;;
39294;SDS011;52361;52.100;5.248;2023-02-28T06:40:14;3.6;;;2.8;;
39294;SDS011;52361;52.100;5.248;2023-02-28T06:41:51;4.0;;;2.8;;
39294;SDS011;52361;52.100;5.248;2023-02-28T06:43:27;3.4;;;3.1;;
39294;SDS011;52361;52.100;5.248;2023-02-28T06:46:43;6.3;;;3.3;;
39294;SDS011;52361;52.100;5.248;2023-02-28T06:48:20;4.2;;;2.6;;
39294;SDS011;52361;52.100;5.248;2023-02-28T06:49:56;3.7;;;2.7;;
39294;SDS011;52361;52.100;5.248;2023-02-28T06:53:09;4.2;;;3.0;;
39294;SDS011;52361;52.100;5.248;2023-02-28T06:54:45;5.8;;;3.7;;
39294;SDS011;52361;52.100;5.248;2023-02-28T06:56:21;4.61;;;3.4;;
39294;SDS011;52361;52.100;5.248;2023-02-28T06:59:34;3.7;;;2.9;;
39294;SDS011;52361;52.100;5.248;2023-02-28T07:01:10;5.0;;;2.8;;
39294;SDS011;52361;52.100;5.248;2023-02-28T07:02:49;3.6;;;3.2;;
39294;SDS011;52361;52.100;5.248;2023-02-28T07:04:25;7.0;;;3.1;;
39294;SDS011;52361;52.100;5.248;2023-02-28T07:07:38;3.6;;;2.9;;
39294;SDS011;52361;52.100;5.248;2023-02-28T07:09:15;6.3;;;2.9;;
39294;SDS011;52361;52.100;5.248;2023-02-28T07:10:52;9.71;;;3.6;;
39294;SDS011;52361;52.100;5.248;2023-02-28T07:14:05;6.2;;;3.5;;
39294;SDS011;52361;52.100;5.248;2023-02-28T07:15:41;6.1;;;3.2;;
39294;SDS011;52361;52.100;5.248;2023-02-28T07:17:17;4.2;;;2.9;;
39294;SDS011;52361;52.100;5.248;2023-02-28T07:20:29;6.3;;;2.7;;
39294;SDS011;52361;52.100;5.248;2023-02-28T07:22:07;4.5;;;3.1;;
39294;SDS011;52361;52.100;5.248;2023-02-28T07:23:43;5.5;;;3.8;;
39294;SDS011;52361;52.100;5.248;2023-02-28T07:25:20;6.1;;;3.3;;
39294;SDS011;52361;52.100;5.248;2023-02-28T07:28:33;5.0;;;3.1;;
39294;SDS011;52361;52.100;5.248;2023-02-28T07:30:10;7.0;;;3.0;;
39294;SDS011;52361;52.100;5.248;2023-02-28T07:31:46;4.2;;;2.5;;
39294;SDS011;52361;52.100;5.248;2023-02-28T07:34:58;5.0;;;3.3;;
39294;SDS011;52361;52.100;5.248;2023-02-28T07:36:34;5.5;;;3.1;;
39294;SDS011;52361;52.100;5.248;2023-02-28T07:38:11;4.0;;;3.3;;
39294;SDS011;52361;52.100;5.248;2023-02-28T07:41:23;3.2;;;2.9;;
39294;SDS011;52361;52.100;5.248;2023-02-28T07:42:59;6.6;;;3.4;;
39294;SDS011;52361;52.100;5.248;2023-02-28T07:44:36;12.3;;;3.7;;
39294;SDS011;52361;52.100;5.248;2023-02-28T07:46:14;5.9;;;3.2;;
39294;SDS011;52361;52.100;5.248;2023-02-28T07:49:29;3.8;;;3.0;;
39294;SDS011;52361;52.100;5.248;2023-02-28T07:52:41;4.8;;;3.1;;
39294;SDS011;52361;52.100;5.248;2023-02-28T07:55:55;4.8;;;2.4;;
39294;SDS011;52361;52.100;5.248;2023-02-28T07:57:31;4.61;;;3.0;;
39294;SDS011;52361;52.100;5.248;2023-02-28T07:59:07;5.2;;;3.1;;
39294;SDS011;52361;52.100;5.248;2023-02-28T08:02:20;6.3;;;3.4;;
39294;SDS011;52361;52.100;5.248;2023-02-28T08:03:56;3.7;;;2.9;;
39294;SDS011;52361;52.100;5.248;2023-02-28T08:05:32;5.3;;;3.5;;
39294;SDS011;52361;52.100;5.248;2023-02-28T08:07:08;5.2;;;3.2;;
39294;SDS011;52361;52.100;5.248;2023-02-28T08:11:57;4.2;;;2.8;;
39294;SDS011;52361;52.100;5.248;2023-02-28T08:13:33;5.9;;;2.9;;
39294;SDS011;52361;52.100;5.248;2023-02-28T08:16:46;12.2;;;3.0;;
39294;SDS011;52361;52.100;5.248;2023-02-28T08:18:22;4.0;;;2.5;;
39294;SDS011;52361;52.100;5.248;2023-02-28T08:19:59;4.5;;;2.8;;
39294;SDS011;52361;52.100;5.248;2023-02-28T08:23:12;3.7;;;3.3;;
39294;SDS011;52361;52.100;5.248;2023-02-28T08:24:49;4.41;;;2.7;;
39294;SDS011;52361;52.100;5.248;2023-02-28T08:26:25;5.4;;;3.3;;
39294;SDS011;52361;52.100;5.248;2023-02-28T08:28:01;4.41;;;2.5;;
39294;SDS011;52361;52.100;5.248;2023-02-28T08:31:15;3.8;;;3.1;;
39294;SDS011;52361;52.100;5.248;2023-02-28T08:32:53;8.5;;;3.2;;
39294;SDS011;52361;52.100;5.248;2023-02-28T08:34:29;5.7;;;3.5;;
39294;SDS011;52361;52.100;5.248;2023-02-28T08:37:43;12.1;;;3.1;;
39294;SDS011;52361;52.100;5.248;2023-02-28T08:39:19;3.7;;;2.5;;
39294;SDS011;52361;52.100;5.248;2023-02-28T08:40:57;5.7;;;3.0;;
39294;SDS011;52361;52.100;5.248;2023-02-28T08:44:11;3.2;;;2.21;;
39294;SDS011;52361;52.100;5.248;2023-02-28T08:45:50;2.1;;;1.9;;
39294;SDS011;52361;52.100;5.248;2023-02-28T08:47:27;4.0;;;2.0;;
39294;SDS011;52361;52.100;5.248;2023-02-28T08:49:03;4.91;;;3.0;;
39294;SDS011;52361;52.100;5.248;2023-02-28T08:52:16;3.6;;;2.31;;
39294;SDS011;52361;52.100;5.248;2023-02-28T08:53:53;5.5;;;4.0;;
39294;SDS011;52361;52.100;5.248;2023-02-28T08:55:30;4.1;;;2.9;;
39294;SDS011;52361;52.100;5.248;2023-02-28T08:58:42;3.5;;;2.4;;
39294;SDS011;52361;52.100;5.248;2023-02-28T09:00:21;2.9;;;2.4;;
39294;SDS011;52361;52.100;5.248;2023-02-28T09:01:57;3.3;;;2.6;;
39294;SDS011;52361;52.100;5.248;2023-02-28T09:05:10;3.0;;;2.21;;
39294;SDS011;52361;52.100;5.248;2023-02-28T09:06:46;2.8;;;2.6;;
39294;SDS011;52361;52.100;5.248;2023-02-28T09:08:22;2.9;;;2.4;;
39294;SDS011;52361;52.100;5.248;2023-02-28T09:09:59;4.8;;;2.8;;
39294;SDS011;52361;52.100;5.248;2023-02-28T09:13:12;3.1;;;2.21;;
39294;SDS011;52361;52.100;5.248;2023-02-28T09:14:48;3.2;;;2.4;;
39294;SDS011;52361;52.100;5.248;2023-02-28T09:16:24;4.41;;;2.7;;
39294;SDS011;52361;52.100;5.248;2023-02-28T09:19:37;3.6;;;1.7;;
39294;SDS011;52361;52.100;5.248;2023-02-28T09:21:13;4.7;;;2.4;;
39294;SDS011;52361;52.100;5.248;2023-02-28T09:22:52;4.7;;;2.4;;
39294;SDS011;52361;52.100;5.248;2023-02-28T09:26:04;2.8;;;2.4;;
39294;SDS011;52361;52.100;5.248;2023-02-28T09:27:41;3.5;;;2.21;;
39294;SDS011;52361;52.100;5.248;2023-02-28T09:29:17;3.0;;;2.1;;
39294;SDS011;52361;52.100;5.248;2023-02-28T09:30:54;7.3;;;2.9;;
39294;SDS011;52361;52.100;5.248;2023-02-28T09:34:07;2.7;;;2.0;;
39294;SDS011;52361;52.100;5.248;2023-02-28T09:35:43;3.8;;;2.4;;
39294;SDS011;52361;52.100;5.248;2023-02-28T09:37:19;2.6;;;1.9;;
39294;SDS011;52361;52.100;5.248;2023-02-28T09:40:32;2.21;;;1.9;;
39294;SDS011;52361;52.100;5.248;2023-02-28T09:42:17;3.9;;;2.8;;
39294;SDS011;52361;52.100;5.248;2023-02-28T09:44:05;2.6;;;2.0;;
39294;SDS011;52361;52.100;5.248;2023-02-28T09:45:50;4.0;;;2.1;;
39294;SDS011;52361;52.100;5.248;2023-02-28T09:47:31;2.31;;;2.1;;
39294;SDS011;52361;52.100;5.248;2023-02-28T09:50:52;3.4;;;2.21;;
39294;SDS011;52361;52.100;5.248;2023-02-28T09:52:37;4.3;;;1.9;;
39294;SDS011;52361;52.100;5.248;2023-02-28T09:54:14;5.5;;;1.9;;
39294;SDS011;52361;52.100;5.248;2023-02-28T09:57:36;1.9;;;1.8;;
39294;SDS011;52361;52.100;5.248;2023-02-28T09:59:18;3.9;;;2.6;;
39294;SDS011;52361;52.100;5.248;2023-02-28T10:01:18;1.8;;;1.7;;
39294;SDS011;52361;52.100;5.248;2023-02-28T10:03:13;3.7;;;1.7;;
39294;SDS011;52361;52.100;5.248;2023-02-28T10:05:02;1.8;;;1.5;;
39294;SDS011;52361;52.100;5.248;2023-02-28T10:06:44;1.6;;;1.5;;
39294;SDS011;52361;52.100;5.248;2023-02-28T10:10:06;1.6;;;1.4;;
39294;SDS011;52361;52.100;5.248;2023-02-28T10:11:57;1.7;;;1.4;;
39294;SDS011;52361;52.100;5.248;2023-02-28T10:13:42;1.9;;;1.2;;
39294;SDS011;52361;52.100;5.248;2023-02-28T10:15:27;2.31;;;1.9;;
39294;SDS011;52361;52.100;5.248;2023-02-28T10:17:08;1.3;;;1.2;;
39294;SDS011;52361;52.100;5.248;2023-02-28T10:20:35;1.8;;;1.3;;
39294;SDS011;52361;52.100;5.248;2023-02-28T10:22:14;1.4;;;1.3;;
39294;SDS011;52361;52.100;5.248;2023-02-28T10:24:02;4.2;;;1.6;;
39294;SDS011;52361;52.100;5.248;2023-02-28T10:25:54;1.4;;;1.3;;
39294;SDS011;52361;52.100;5.248;2023-02-28T10:27:34;2.0;;;1.4;;
39294;SDS011;52361;52.100;5.248;2023-02-28T10:30:48;2.4;;;1.3;;
39294;SDS011;52361;52.100;5.248;2023-02-28T10:32:26;1.3;;;1.2;;
39294;SDS011;52361;52.100;5.248;2023-02-28T10:34:07;3.3;;;1.2;;
39294;SDS011;52361;52.100;5.248;2023-02-28T10:35:47;3.0;;;1.3;;
39294;SDS011;52361;52.100;5.248;2023-02-28T10:39:01;1.4;;;1.11;;
39294;SDS011;52361;52.100;5.248;2023-02-28T10:41:11;2.1;;;1.3;;
39294;SDS011;52361;52.100;5.248;2023-02-28T10:42:55;1.2;;;1.11;;
39294;SDS011;52361;52.100;5.248;2023-02-28T10:44:34;2.4;;;1.7;;
39294;SDS011;52361;52.100;5.248;2023-02-28T10:46:11;1.3;;;1.2;;
39294;SDS011;52361;52.100;5.248;2023-02-28T10:49:30;1.6;;;1.5;;
39294;SDS011;52361;52.100;5.248;2023-02-28T10:51:08;2.1;;;1.2;;
39294;SDS011;52361;52.100;5.248;2023-02-28T10:52:45;1.7;;;1.4;;
39294;SDS011;52361;52.100;5.248;2023-02-28T10:56:04;1.7;;;1.6;;
39294;SDS011;52361;52.100;5.248;2023-02-28T10:57:49;1.0;;;1.0;;
39294;SDS011;52361;52.100;5.248;2023-02-28T10:59:27;2.7;;;1.11;;
39294;SDS011;52361;52.100;5.248;2023-02-28T11:01:08;1.9;;;1.4;;
39294;SDS011;52361;52.100;5.248;2023-02-28T11:02:49;1.3;;;1.2;;
39294;SDS011;52361;52.100;5.248;2023-02-28T11:06:14;3.8;;;2.31;;
39294;SDS011;52361;52.100;5.248;2023-02-28T11:07:54;1.4;;;1.3;;
39294;SDS011;52361;52.100;5.248;2023-02-28T11:09:35;3.0;;;1.2;;
39294;SDS011;52361;52.100;5.248;2023-02-28T11:11:14;1.6;;;1.5;;
39294;SDS011;52361;52.100;5.248;2023-02-28T11:14:31;1.7;;;1.6;;
39294;SDS011;52361;52.100;5.248;2023-02-28T11:16:30;1.3;;;1.2;;
39294;SDS011;52361;52.100;5.248;2023-02-28T11:18:17;2.1;;;1.3;;
39294;SDS011;52361;52.100;5.248;2023-02-28T11:19:59;1.2;;;1.0;;
39294;SDS011;52361;52.100;5.248;2023-02-28T11:21:39;3.3;;;1.2;;
39294;SDS011;52361;52.100;5.248;2023-02-28T11:25:03;1.4;;;1.2;;
39294;SDS011;52361;52.100;5.248;2023-02-28T11:26:46;2.21;;;1.3;;
39294;SDS011;52361;52.100;5.248;2023-02-28T11:28:25;1.3;;;1.2;;
39294;SDS011;52361;52.100;5.248;2023-02-28T11:30:11;1.6;;;1.3;;
39294;SDS011;52361;52.100;5.248;2023-02-28T11:33:48;1.4;;;1.11;;
39294;SDS011;52361;52.100;5.248;2023-02-28T11:35:28;0.9;;;0.9;;
39294;SDS011;52361;52.100;5.248;2023-02-28T11:37:10;1.7;;;1.3;;
39294;SDS011;52361;52.100;5.248;2023-02-28T11:38:51;1.11;;;1.0;;
39294;SDS011;52361;52.100;5.248;2023-02-28T11:40:31;1.4;;;1.11;;
39294;SDS011;52361;52.100;5.248;2023-02-28T11:45:17;1.7;;;1.11;;
39294;SDS011;52361;52.100;5.248;2023-02-28T11:47:15;1.3;;;1.2;;
39294;SDS011;52361;52.100;5.248;2023-02-28T11:49:02;1.6;;;1.3;;
39294;SDS011;52361;52.100;5.248;2023-02-28T11:52:43;1.7;;;1.6;;
39294;SDS011;52361;52.100;5.248;2023-02-28T11:54:27;2.0;;;1.4;;
39294;SDS011;52361;52.100;5.248;2023-02-28T11:56:29;2.0;;;1.4;;
39294;SDS011;52361;52.100;5.248;2023-02-28T11:58:14;1.4;;;1.3;;
39294;SDS011;52361;52.100;5.248;2023-02-28T12:00:30;2.21;;;1.7;;
39294;SDS011;52361;52.100;5.248;2023-02-28T12:02:22;1.6;;;1.4;;
39294;SDS011;52361;52.100;5.248;2023-02-28T12:04:04;21.9;;;8.5;;
39294;SDS011;52361;52.100;5.248;2023-02-28T12:05:58;1.3;;;1.2;;
39294;SDS011;52361;52.100;5.248;2023-02-28T12:07:56;1.11;;;1.11;;
39294;SDS011;52361;52.100;5.248;2023-02-28T12:11:39;1.2;;;1.11;;
39294;SDS011;52361;52.100;5.248;2023-02-28T12:13:27;1.4;;;1.3;;
39294;SDS011;52361;52.100;5.248;2023-02-28T12:15:17;1.11;;;1.11;;
39294;SDS011;52361;52.100;5.248;2023-02-28T12:18:25;3.4;;;1.8;;
39294;SDS011;52361;52.100;5.248;2023-02-28T12:20:28;1.5;;;1.3;;
39294;SDS011;52361;52.100;5.248;2023-02-28T12:24:08;1.2;;;1.11;;
39294;SDS011;52361;52.100;5.248;2023-02-28T12:26:27;2.0;;;1.5;;
39294;SDS011;52361;52.100;5.248;2023-02-28T12:28:13;1.6;;;1.0;;
39294;SDS011;52361;52.100;5.248;2023-02-28T12:29:54;2.4;;;1.3;;
39294;SDS011;52361;52.100;5.248;2023-02-28T12:31:35;1.0;;;0.9;;
39294;SDS011;52361;52.100;5.248;2023-02-28T12:33:15;2.31;;;1.3;;
39294;SDS011;52361;52.100;5.248;2023-02-28T12:34:57;1.8;;;1.6;;
39294;SDS011;52361;52.100;5.248;2023-02-28T12:38:19;1.8;;;1.4;;
39294;SDS011;52361;52.100;5.248;2023-02-28T12:40:01;1.5;;;1.4;;
39294;SDS011;52361;52.100;5.248;2023-02-28T12:41:41;1.7;;;1.0;;
39294;SDS011;52361;52.100;5.248;2023-02-28T12:43:22;1.5;;;1.11;;
39294;SDS011;52361;52.100;5.248;2023-02-28T12:46:51;1.2;;;1.11;;
39294;SDS011;52361;52.100;5.248;2023-02-28T12:48:39;1.5;;;1.3;;
39294;SDS011;52361;52.100;5.248;2023-02-28T12:50:18;1.0;;;0.9;;
39294;SDS011;52361;52.100;5.248;2023-02-28T12:51:56;1.6;;;1.2;;
39294;SDS011;52361;52.100;5.248;2023-02-28T12:55:27;1.3;;;1.2;;
39294;SDS011;52361;52.100;5.248;2023-02-28T12:57:15;3.0;;;1.0;;
39294;SDS011;52361;52.100;5.248;2023-02-28T12:59:01;5.9;;;1.2;;
39294;SDS011;52361;52.100;5.248;2023-02-28T13:00:49;0.9;;;0.9;;
39294;SDS011;52361;52.100;5.248;2023-02-28T13:03:41;2.21;;;1.2;;
39294;SDS011;52361;52.100;5.248;2023-02-28T13:05:32;1.6;;;1.5;;
39294;SDS011;52361;52.100;5.248;2023-02-28T13:08:23;2.0;;;1.11;;
39294;SDS011;52361;52.100;5.248;2023-02-28T13:10:39;2.31;;;1.3;;
39294;SDS011;52361;52.100;5.248;2023-02-28T13:13:58;1.5;;;1.3;;
39294;SDS011;52361;52.100;5.248;2023-02-28T13:15:37;1.3;;;1.2;;
39294;SDS011;52361;52.100;5.248;2023-02-28T13:17:16;2.9;;;1.2;;
39294;SDS011;52361;52.100;5.248;2023-02-28T13:19:07;1.6;;;1.2;;